sensor_id;sensor_type;location;lat;lon;timestamp;temperature;humidity
70534;SHT31;58088;51.186;17.130;2024-03-08T00:00:29;3.21;63.22
70534;SHT31;58088;51.186;17.130;2024-03-08T00:03:00;3.17;63.27
70534;SHT31;58088;51.186;17.130;2024-03-08T00:05:27;3.14;63.30
70534;SHT31;58088;51.186;17.130;2024-03-08T00:07:53;3.13;63.40
70534;SHT31;58088;51.186;17.130;2024-03-08T00:10:20;3.09;63.54
70534;SHT31;58088;51.186;17.130;2024-03-08T00:12:46;3.05;63.66
70534;SHT31;58088;51.186;17.130;2024-03-08T00:15:13;3.03;63.67
70534;SHT31;58088;51.186;17.130;2024-03-08T00:17:42;3.00;63.76
70534;SHT31;58088;51.186;17.130;2024-03-08T00:20:10;2.98;63.77
70534;SHT31;58088;51.186;17.130;2024-03-08T00:22:37;2.96;63.78
70534;SHT31;58088;51.186;17.130;2024-03-08T00:25:05;2.93;63.81
70534;SHT31;58088;51.186;17.130;2024-03-08T00:27:35;2.91;63.88
70534;SHT31;58088;51.186;17.130;2024-03-08T00:30:03;2.90;63.93
70534;SHT31;58088;51.186;17.130;2024-03-08T00:32:31;2.88;63.90
70534;SHT31;58088;51.186;17.130;2024-03-08T00:34:57;2.86;63.90
70534;SHT31;58088;51.186;17.130;2024-03-08T00:37:23;2.85;63.92
70534;SHT31;58088;51.186;17.130;2024-03-08T00:39:53;2.84;63.98
70534;SHT31;58088;51.186;17.130;2024-03-08T00:42:19;2.82;64.00
70534;SHT31;58088;51.186;17.130;2024-03-08T00:44:46;2.80;63.99
70534;SHT31;58088;51.186;17.130;2024-03-08T00:47:16;2.78;64.00
70534;SHT31;58088;51.186;17.130;2024-03-08T00:49:43;2.76;64.00
70534;SHT31;58088;51.186;17.130;2024-03-08T00:52:09;2.72;64.00
70534;SHT31;58088;51.186;17.130;2024-03-08T00:54:36;2.69;64.09
70534;SHT31;58088;51.186;17.130;2024-03-08T00:57:02;2.66;64.17
70534;SHT31;58088;51.186;17.130;2024-03-08T00:59:30;2.63;64.28
70534;SHT31;58088;51.186;17.130;2024-03-08T01:02:05;2.59;64.43
70534;SHT31;58088;51.186;17.130;2024-03-08T01:04:32;2.55;64.58
70534;SHT31;58088;51.186;17.130;2024-03-08T01:06:59;2.51;64.89
70534;SHT31;58088;51.186;17.130;2024-03-08T01:09:25;2.45;65.11
70534;SHT31;58088;51.186;17.130;2024-03-08T01:11:53;2.39;65.26
70534;SHT31;58088;51.186;17.130;2024-03-08T01:14:21;2.34;65.47
70534;SHT31;58088;51.186;17.130;2024-03-08T01:16:48;2.29;65.65
70534;SHT31;58088;51.186;17.130;2024-03-08T01:19:15;2.28;65.69
70534;SHT31;58088;51.186;17.130;2024-03-08T01:21:41;2.28;65.62
70534;SHT31;58088;51.186;17.130;2024-03-08T01:24:08;2.29;65.53
70534;SHT31;58088;51.186;17.130;2024-03-08T01:26:34;2.28;65.49
70534;SHT31;58088;51.186;17.130;2024-03-08T01:29:01;2.27;65.54
70534;SHT31;58088;51.186;17.130;2024-03-08T01:31:29;2.21;65.83
70534;SHT31;58088;51.186;17.130;2024-03-08T01:33:58;2.15;66.04
70534;SHT31;58088;51.186;17.130;2024-03-08T01:36:24;2.09;66.23
70534;SHT31;58088;51.186;17.130;2024-03-08T01:38:51;2.05;66.37
70534;SHT31;58088;51.186;17.130;2024-03-08T01:41:18;1.99;66.59
70534;SHT31;58088;51.186;17.130;2024-03-08T01:43:45;1.97;66.72
70534;SHT31;58088;51.186;17.130;2024-03-08T01:46:12;1.95;66.79
70534;SHT31;58088;51.186;17.130;2024-03-08T01:48:44;1.94;66.80
70534;SHT31;58088;51.186;17.130;2024-03-08T01:51:11;1.91;66.91
70534;SHT31;58088;51.186;17.130;2024-03-08T01:53:40;1.88;67.06
70534;SHT31;58088;51.186;17.130;2024-03-08T01:56:11;1.85;67.20
70534;SHT31;58088;51.186;17.130;2024-03-08T01:58:40;1.81;67.38
70534;SHT31;58088;51.186;17.130;2024-03-08T02:01:09;1.78;67.46
70534;SHT31;58088;51.186;17.130;2024-03-08T02:03:40;1.77;67.57
70534;SHT31;58088;51.186;17.130;2024-03-08T02:06:06;1.77;67.55
70534;SHT31;58088;51.186;17.130;2024-03-08T02:08:36;1.78;67.48
70534;SHT31;58088;51.186;17.130;2024-03-08T02:11:03;1.78;67.48
70534;SHT31;58088;51.186;17.130;2024-03-08T02:13:30;1.76;67.68
70534;SHT31;58088;51.186;17.130;2024-03-08T02:15:57;1.72;67.86
70534;SHT31;58088;51.186;17.130;2024-03-08T02:18:25;1.68;67.95
70534;SHT31;58088;51.186;17.130;2024-03-08T02:23:20;1.65;68.12
70534;SHT31;58088;51.186;17.130;2024-03-08T02:25:47;1.66;68.01
70534;SHT31;58088;51.186;17.130;2024-03-08T02:28:14;1.68;67.89
70534;SHT31;58088;51.186;17.130;2024-03-08T02:30:41;1.70;67.77
70534;SHT31;58088;51.186;17.130;2024-03-08T02:33:07;1.72;67.67
70534;SHT31;58088;51.186;17.130;2024-03-08T02:35:37;1.72;67.70
70534;SHT31;58088;51.186;17.130;2024-03-08T02:38:04;1.73;67.70
70534;SHT31;58088;51.186;17.130;2024-03-08T02:40:30;1.71;67.80
70534;SHT31;58088;51.186;17.130;2024-03-08T02:42:57;1.67;67.71
70534;SHT31;58088;51.186;17.130;2024-03-08T02:45:23;1.66;67.80
70534;SHT31;58088;51.186;17.130;2024-03-08T02:47:50;1.67;67.75
70534;SHT31;58088;51.186;17.130;2024-03-08T02:50:17;1.67;67.71
70534;SHT31;58088;51.186;17.130;2024-03-08T02:52:43;1.68;67.72
70534;SHT31;58088;51.186;17.130;2024-03-08T02:55:11;1.68;67.70
70534;SHT31;58088;51.186;17.130;2024-03-08T02:57:42;1.69;67.68
70534;SHT31;58088;51.186;17.130;2024-03-08T03:00:09;1.70;67.59
70534;SHT31;58088;51.186;17.130;2024-03-08T03:02:54;1.72;67.50
70534;SHT31;58088;51.186;17.130;2024-03-08T03:05:21;1.72;67.40
70534;SHT31;58088;51.186;17.130;2024-03-08T03:07:47;1.69;67.46
70534;SHT31;58088;51.186;17.130;2024-03-08T03:10:14;1.67;67.49
70534;SHT31;58088;51.186;17.130;2024-03-08T03:12:45;1.63;67.53
70534;SHT31;58088;51.186;17.130;2024-03-08T03:15:14;1.58;67.65
70534;SHT31;58088;51.186;17.130;2024-03-08T03:17:46;1.53;67.84
70534;SHT31;58088;51.186;17.130;2024-03-08T03:20:15;1.50;67.98
70534;SHT31;58088;51.186;17.130;2024-03-08T03:22:51;1.46;68.15
70534;SHT31;58088;51.186;17.130;2024-03-08T03:25:19;1.45;68.20
70534;SHT31;58088;51.186;17.130;2024-03-08T03:28:14;1.44;68.20
70534;SHT31;58088;51.186;17.130;2024-03-08T03:30:44;1.45;68.15
70534;SHT31;58088;51.186;17.130;2024-03-08T03:33:13;1.46;68.09
70534;SHT31;58088;51.186;17.130;2024-03-08T03:35:42;1.45;68.08
70534;SHT31;58088;51.186;17.130;2024-03-08T03:38:11;1.41;68.23
70534;SHT31;58088;51.186;17.130;2024-03-08T03:40:40;1.39;68.28
70534;SHT31;58088;51.186;17.130;2024-03-08T03:43:08;1.37;68.39
70534;SHT31;58088;51.186;17.130;2024-03-08T03:45:36;1.35;68.40
70534;SHT31;58088;51.186;17.130;2024-03-08T03:48:06;1.37;68.40
70534;SHT31;58088;51.186;17.130;2024-03-08T03:50:37;1.35;68.40
70534;SHT31;58088;51.186;17.130;2024-03-08T03:53:04;1.36;68.39
70534;SHT31;58088;51.186;17.130;2024-03-08T03:55:34;1.38;68.30
70534;SHT31;58088;51.186;17.130;2024-03-08T03:58:04;1.37;68.40
70534;SHT31;58088;51.186;17.130;2024-03-08T04:00:30;1.36;68.43
70534;SHT31;58088;51.186;17.130;2024-03-08T04:02:56;1.33;68.50
70534;SHT31;58088;51.186;17.130;2024-03-08T04:05:26;1.33;68.51
70534;SHT31;58088;51.186;17.130;2024-03-08T04:07:52;1.33;68.53
70534;SHT31;58088;51.186;17.130;2024-03-08T04:10:18;1.33;68.56
70534;SHT31;58088;51.186;17.130;2024-03-08T04:12:45;1.30;68.66
70534;SHT31;58088;51.186;17.130;2024-03-08T04:15:11;1.32;68.62
70534;SHT31;58088;51.186;17.130;2024-03-08T04:17:37;1.32;68.54
70534;SHT31;58088;51.186;17.130;2024-03-08T04:20:04;1.32;68.56
70534;SHT31;58088;51.186;17.130;2024-03-08T04:22:38;1.33;68.49
70534;SHT31;58088;51.186;17.130;2024-03-08T04:25:08;1.33;68.45
70534;SHT31;58088;51.186;17.130;2024-03-08T04:27:35;1.31;68.52
70534;SHT31;58088;51.186;17.130;2024-03-08T04:30:02;1.27;68.68
70534;SHT31;58088;51.186;17.130;2024-03-08T04:32:29;1.23;68.75
70534;SHT31;58088;51.186;17.130;2024-03-08T04:34:57;1.21;68.80
70534;SHT31;58088;51.186;17.130;2024-03-08T04:37:24;1.18;68.88
70534;SHT31;58088;51.186;17.130;2024-03-08T04:39:50;1.16;68.93
70534;SHT31;58088;51.186;17.130;2024-03-08T04:42:16;1.12;69.05
70534;SHT31;58088;51.186;17.130;2024-03-08T04:44:43;1.07;69.20
70534;SHT31;58088;51.186;17.130;2024-03-08T04:47:10;1.08;69.12
70534;SHT31;58088;51.186;17.130;2024-03-08T04:49:36;1.08;69.10
70534;SHT31;58088;51.186;17.130;2024-03-08T04:52:03;1.07;69.10
70534;SHT31;58088;51.186;17.130;2024-03-08T04:54:30;1.05;69.10
70534;SHT31;58088;51.186;17.130;2024-03-08T04:56:57;1.04;69.10
70534;SHT31;58088;51.186;17.130;2024-03-08T04:59:26;1.03;69.13
70534;SHT31;58088;51.186;17.130;2024-03-08T05:01:53;1.03;69.21
70534;SHT31;58088;51.186;17.130;2024-03-08T05:04:20;1.02;69.31
70534;SHT31;58088;51.186;17.130;2024-03-08T05:06:47;1.01;69.31
70534;SHT31;58088;51.186;17.130;2024-03-08T05:09:14;0.98;69.44
70534;SHT31;58088;51.186;17.130;2024-03-08T05:11:45;0.94;69.47
70534;SHT31;58088;51.186;17.130;2024-03-08T05:14:13;0.94;69.50
70534;SHT31;58088;51.186;17.130;2024-03-08T05:16:45;0.92;69.57
70534;SHT31;58088;51.186;17.130;2024-03-08T05:19:19;0.93;69.59
70534;SHT31;58088;51.186;17.130;2024-03-08T05:21:46;0.96;69.66
70534;SHT31;58088;51.186;17.130;2024-03-08T05:24:14;0.99;69.69
70534;SHT31;58088;51.186;17.130;2024-03-08T05:26:41;1.00;69.56
70534;SHT31;58088;51.186;17.130;2024-03-08T05:29:08;1.00;69.54
70534;SHT31;58088;51.186;17.130;2024-03-08T05:31:48;0.99;69.63
70534;SHT31;58088;51.186;17.130;2024-03-08T05:34:16;0.99;69.63
70534;SHT31;58088;51.186;17.130;2024-03-08T05:36:42;0.98;69.64
70534;SHT31;58088;51.186;17.130;2024-03-08T05:39:11;0.96;69.74
70534;SHT31;58088;51.186;17.130;2024-03-08T05:41:38;0.96;69.80
70534;SHT31;58088;51.186;17.130;2024-03-08T05:44:06;0.98;69.79
70534;SHT31;58088;51.186;17.130;2024-03-08T05:46:33;1.00;69.80
70534;SHT31;58088;51.186;17.130;2024-03-08T05:49:03;1.03;69.82
70534;SHT31;58088;51.186;17.130;2024-03-08T05:51:34;1.02;69.87
70534;SHT31;58088;51.186;17.130;2024-03-08T05:54:02;1.05;69.90
70534;SHT31;58088;51.186;17.130;2024-03-08T05:56:31;1.19;69.85
70534;SHT31;58088;51.186;17.130;2024-03-08T05:58:58;1.40;69.67
70534;SHT31;58088;51.186;17.130;2024-03-08T06:01:24;1.71;69.44
70534;SHT31;58088;51.186;17.130;2024-03-08T06:03:55;2.00;69.07
70534;SHT31;58088;51.186;17.130;2024-03-08T06:06:23;2.29;68.60
70534;SHT31;58088;51.186;17.130;2024-03-08T06:08:50;2.57;68.14
70534;SHT31;58088;51.186;17.130;2024-03-08T06:11:17;2.81;67.61
70534;SHT31;58088;51.186;17.130;2024-03-08T06:13:46;3.00;67.08
70534;SHT31;58088;51.186;17.130;2024-03-08T06:16:13;3.11;66.62
70534;SHT31;58088;51.186;17.130;2024-03-08T06:18:39;3.31;66.54
70534;SHT31;58088;51.186;17.130;2024-03-08T06:21:05;3.55;66.09
70534;SHT31;58088;51.186;17.130;2024-03-08T06:23:32;3.78;65.50
70534;SHT31;58088;51.186;17.130;2024-03-08T06:25:59;4.02;64.98
70534;SHT31;58088;51.186;17.130;2024-03-08T06:28:25;4.24;64.59
70534;SHT31;58088;51.186;17.130;2024-03-08T06:30:51;4.38;64.02
70534;SHT31;58088;51.186;17.130;2024-03-08T06:33:18;4.50;63.49
70534;SHT31;58088;51.186;17.130;2024-03-08T06:35:44;4.58;63.37
70534;SHT31;58088;51.186;17.130;2024-03-08T06:38:10;4.77;63.17
70534;SHT31;58088;51.186;17.130;2024-03-08T06:40:37;4.90;62.58
70534;SHT31;58088;51.186;17.130;2024-03-08T06:43:03;5.02;62.42
70534;SHT31;58088;51.186;17.130;2024-03-08T06:45:32;5.21;62.11
70534;SHT31;58088;51.186;17.130;2024-03-08T06:47:59;5.30;61.61
70534;SHT31;58088;51.186;17.130;2024-03-08T06:50:25;5.46;61.59
70534;SHT31;58088;51.186;17.130;2024-03-08T06:52:52;5.53;61.07
70534;SHT31;58088;51.186;17.130;2024-03-08T06:55:19;5.49;61.00
70534;SHT31;58088;51.186;17.130;2024-03-08T06:57:46;5.50;60.80
70534;SHT31;58088;51.186;17.130;2024-03-08T07:00:13;5.47;60.73
70534;SHT31;58088;51.186;17.130;2024-03-08T07:02:44;5.56;60.72
70534;SHT31;58088;51.186;17.130;2024-03-08T07:05:19;5.74;60.53
70534;SHT31;58088;51.186;17.130;2024-03-08T07:07:46;5.80;60.01
70534;SHT31;58088;51.186;17.130;2024-03-08T07:10:15;5.81;59.90
70534;SHT31;58088;51.186;17.130;2024-03-08T07:12:42;5.83;60.05
70534;SHT31;58088;51.186;17.130;2024-03-08T07:15:09;5.93;59.93
70534;SHT31;58088;51.186;17.130;2024-03-08T07:17:41;6.03;59.84
70534;SHT31;58088;51.186;17.130;2024-03-08T07:20:10;6.12;59.64
70534;SHT31;58088;51.186;17.130;2024-03-08T07:22:39;6.12;59.45
70534;SHT31;58088;51.186;17.130;2024-03-08T07:25:05;6.09;59.12
70534;SHT31;58088;51.186;17.130;2024-03-08T07:27:35;6.11;59.30
70534;SHT31;58088;51.186;17.130;2024-03-08T07:30:05;6.06;59.18
70534;SHT31;58088;51.186;17.130;2024-03-08T07:32:32;6.08;59.12
70534;SHT31;58088;51.186;17.130;2024-03-08T07:35:00;6.18;59.33
70534;SHT31;58088;51.186;17.130;2024-03-08T07:37:29;6.28;59.02
70534;SHT31;58088;51.186;17.130;2024-03-08T07:39:57;6.34;59.17
70534;SHT31;58088;51.186;17.130;2024-03-08T07:42:23;6.51;58.90
70534;SHT31;58088;51.186;17.130;2024-03-08T07:44:50;6.61;58.33
70534;SHT31;58088;51.186;17.130;2024-03-08T07:47:16;6.59;57.92
70534;SHT31;58088;51.186;17.130;2024-03-08T07:49:44;6.61;58.14
70534;SHT31;58088;51.186;17.130;2024-03-08T07:52:10;6.68;58.37
70534;SHT31;58088;51.186;17.130;2024-03-08T07:54:41;6.81;57.88
70534;SHT31;58088;51.186;17.130;2024-03-08T07:57:07;6.73;57.66
70534;SHT31;58088;51.186;17.130;2024-03-08T07:59:33;6.71;57.44
70534;SHT31;58088;51.186;17.130;2024-03-08T08:01:59;6.72;57.37
70534;SHT31;58088;51.186;17.130;2024-03-08T08:04:26;6.59;57.36
70534;SHT31;58088;51.186;17.130;2024-03-08T08:06:53;6.53;57.40
70534;SHT31;58088;51.186;17.130;2024-03-08T08:09:20;6.57;57.66
70534;SHT31;58088;51.186;17.130;2024-03-08T08:12:00;6.67;57.83
70534;SHT31;58088;51.186;17.130;2024-03-08T08:14:29;6.72;57.79
70534;SHT31;58088;51.186;17.130;2024-03-08T08:16:59;6.80;57.56
70534;SHT31;58088;51.186;17.130;2024-03-08T08:19:29;6.89;57.64
70534;SHT31;58088;51.186;17.130;2024-03-08T08:21:57;6.93;57.52
70534;SHT31;58088;51.186;17.130;2024-03-08T08:24:23;6.95;57.45
70534;SHT31;58088;51.186;17.130;2024-03-08T08:26:50;6.93;57.46
70534;SHT31;58088;51.186;17.130;2024-03-08T08:29:16;6.93;57.48
70534;SHT31;58088;51.186;17.130;2024-03-08T08:31:42;6.99;57.47
70534;SHT31;58088;51.186;17.130;2024-03-08T08:34:09;7.01;57.82
70534;SHT31;58088;51.186;17.130;2024-03-08T08:36:40;7.11;57.81
70534;SHT31;58088;51.186;17.130;2024-03-08T08:39:06;7.14;57.02
70534;SHT31;58088;51.186;17.130;2024-03-08T08:41:41;7.11;57.03
70534;SHT31;58088;51.186;17.130;2024-03-08T08:44:08;7.08;56.92
70534;SHT31;58088;51.186;17.130;2024-03-08T08:46:38;7.14;56.90
70534;SHT31;58088;51.186;17.130;2024-03-08T08:49:05;7.20;56.86
70534;SHT31;58088;51.186;17.130;2024-03-08T08:51:36;7.23;56.52
70534;SHT31;58088;51.186;17.130;2024-03-08T08:54:03;7.26;56.50
70534;SHT31;58088;51.186;17.130;2024-03-08T08:56:29;7.25;56.29
70534;SHT31;58088;51.186;17.130;2024-03-08T08:58:57;7.35;56.60
70534;SHT31;58088;51.186;17.130;2024-03-08T09:01:23;7.48;56.11
70534;SHT31;58088;51.186;17.130;2024-03-08T09:03:49;7.52;56.16
70534;SHT31;58088;51.186;17.130;2024-03-08T09:06:16;7.50;56.17
70534;SHT31;58088;51.186;17.130;2024-03-08T09:08:42;7.56;56.30
70534;SHT31;58088;51.186;17.130;2024-03-08T09:11:11;7.68;56.48
70534;SHT31;58088;51.186;17.130;2024-03-08T09:13:37;7.76;56.29
70534;SHT31;58088;51.186;17.130;2024-03-08T09:16:04;7.76;56.29
70534;SHT31;58088;51.186;17.130;2024-03-08T09:18:34;7.66;56.04
70534;SHT31;58088;51.186;17.130;2024-03-08T09:21:00;7.62;56.23
70534;SHT31;58088;51.186;17.130;2024-03-08T09:23:27;7.76;56.29
70534;SHT31;58088;51.186;17.130;2024-03-08T09:25:58;7.89;56.09
70534;SHT31;58088;51.186;17.130;2024-03-08T09:28:24;7.89;55.63
70534;SHT31;58088;51.186;17.130;2024-03-08T09:30:52;7.85;55.48
70534;SHT31;58088;51.186;17.130;2024-03-08T09:33:18;7.87;55.32
70534;SHT31;58088;51.186;17.130;2024-03-08T09:35:45;7.93;55.50
70534;SHT31;58088;51.186;17.130;2024-03-08T09:38:16;7.95;55.40
70534;SHT31;58088;51.186;17.130;2024-03-08T09:40:42;7.96;55.00
70534;SHT31;58088;51.186;17.130;2024-03-08T09:43:09;8.02;55.10
70534;SHT31;58088;51.186;17.130;2024-03-08T09:45:38;8.04;54.99
70534;SHT31;58088;51.186;17.130;2024-03-08T09:48:08;8.10;55.12
70534;SHT31;58088;51.186;17.130;2024-03-08T09:50:42;8.08;54.79
70534;SHT31;58088;51.186;17.130;2024-03-08T09:53:10;8.13;55.28
70534;SHT31;58088;51.186;17.130;2024-03-08T09:55:37;8.13;54.73
70534;SHT31;58088;51.186;17.130;2024-03-08T09:58:10;8.19;54.71
70534;SHT31;58088;51.186;17.130;2024-03-08T10:00:56;8.25;54.59
70534;SHT31;58088;51.186;17.130;2024-03-08T10:03:23;8.26;54.38
70534;SHT31;58088;51.186;17.130;2024-03-08T10:05:53;8.21;53.97
70534;SHT31;58088;51.186;17.130;2024-03-08T10:08:21;8.16;53.95
70534;SHT31;58088;51.186;17.130;2024-03-08T10:10:50;8.16;54.20
70534;SHT31;58088;51.186;17.130;2024-03-08T10:13:17;8.19;53.85
70534;SHT31;58088;51.186;17.130;2024-03-08T10:15:45;8.24;53.86
70534;SHT31;58088;51.186;17.130;2024-03-08T10:18:11;8.24;53.86
70534;SHT31;58088;51.186;17.130;2024-03-08T10:20:37;8.29;54.11
70534;SHT31;58088;51.186;17.130;2024-03-08T10:23:04;8.39;53.75
70534;SHT31;58088;51.186;17.130;2024-03-08T10:25:34;8.47;53.20
70534;SHT31;58088;51.186;17.130;2024-03-08T10:28:04;8.51;53.26
70534;SHT31;58088;51.186;17.130;2024-03-08T10:30:31;8.54;52.66
70534;SHT31;58088;51.186;17.130;2024-03-08T10:32:58;8.58;52.78
70534;SHT31;58088;51.186;17.130;2024-03-08T10:35:31;8.57;51.95
70534;SHT31;58088;51.186;17.130;2024-03-08T10:37:57;8.61;51.82
70534;SHT31;58088;51.186;17.130;2024-03-08T10:40:28;8.58;51.41
70534;SHT31;58088;51.186;17.130;2024-03-08T10:42:56;8.53;51.03
70534;SHT31;58088;51.186;17.130;2024-03-08T10:50:53;8.72;51.28
70534;SHT31;58088;51.186;17.130;2024-03-08T10:53:21;8.69;51.82
70534;SHT31;58088;51.186;17.130;2024-03-08T10:55:50;8.66;51.16
70534;SHT31;58088;51.186;17.130;2024-03-08T10:58:22;8.56;51.19
70534;SHT31;58088;51.186;17.130;2024-03-08T11:00:54;8.47;51.15
70534;SHT31;58088;51.186;17.130;2024-03-08T11:14:52;8.69;49.99
70534;SHT31;58088;51.186;17.130;2024-03-08T11:19:58;8.71;49.98
70534;SHT31;58088;51.186;17.130;2024-03-08T11:22:33;8.78;49.85
70534;SHT31;58088;51.186;17.130;2024-03-08T11:25:03;8.88;50.15
70534;SHT31;58088;51.186;17.130;2024-03-08T11:27:35;8.88;49.69
70534;SHT31;58088;51.186;17.130;2024-03-08T11:30:03;8.84;49.64
70534;SHT31;58088;51.186;17.130;2024-03-08T11:32:38;8.80;49.52
70534;SHT31;58088;51.186;17.130;2024-03-08T11:35:07;8.79;49.44
70534;SHT31;58088;51.186;17.130;2024-03-08T11:37:45;8.80;49.66
70534;SHT31;58088;51.186;17.130;2024-03-08T11:40:14;8.81;50.07
70534;SHT31;58088;51.186;17.130;2024-03-08T11:42:45;8.76;49.88
70534;SHT31;58088;51.186;17.130;2024-03-08T11:45:13;8.71;50.34
70534;SHT31;58088;51.186;17.130;2024-03-08T11:47:45;8.78;49.88
70534;SHT31;58088;51.186;17.130;2024-03-08T11:50:13;8.89;49.76
70534;SHT31;58088;51.186;17.130;2024-03-08T11:52:40;8.94;49.76
70534;SHT31;58088;51.186;17.130;2024-03-08T11:55:08;8.94;49.60
70534;SHT31;58088;51.186;17.130;2024-03-08T11:57:35;8.96;49.76
70534;SHT31;58088;51.186;17.130;2024-03-08T12:00:02;9.00;49.60
70534;SHT31;58088;51.186;17.130;2024-03-08T12:02:33;9.07;49.45
70534;SHT31;58088;51.186;17.130;2024-03-08T12:05:03;9.13;49.19
70534;SHT31;58088;51.186;17.130;2024-03-08T12:07:35;9.21;49.09
70534;SHT31;58088;51.186;17.130;2024-03-08T12:10:17;9.29;48.92
70534;SHT31;58088;51.186;17.130;2024-03-08T12:12:48;9.28;48.57
70534;SHT31;58088;51.186;17.130;2024-03-08T12:15:22;9.24;49.30
70534;SHT31;58088;51.186;17.130;2024-03-08T12:17:50;9.24;48.69
70534;SHT31;58088;51.186;17.130;2024-03-08T12:22:48;9.31;49.04
70534;SHT31;58088;51.186;17.130;2024-03-08T12:25:17;9.34;48.97
70534;SHT31;58088;51.186;17.130;2024-03-08T12:27:45;9.41;48.88
70534;SHT31;58088;51.186;17.130;2024-03-08T12:30:16;9.47;48.63
70534;SHT31;58088;51.186;17.130;2024-03-08T12:32:58;9.44;49.01
70534;SHT31;58088;51.186;17.130;2024-03-08T12:35:26;9.38;48.51
70534;SHT31;58088;51.186;17.130;2024-03-08T12:37:55;9.37;48.68
70534;SHT31;58088;51.186;17.130;2024-03-08T12:40:30;9.40;48.92
70534;SHT31;58088;51.186;17.130;2024-03-08T12:43:00;9.39;48.37
70534;SHT31;58088;51.186;17.130;2024-03-08T12:45:28;9.43;48.35
70534;SHT31;58088;51.186;17.130;2024-03-08T12:47:54;9.43;48.38
70534;SHT31;58088;51.186;17.130;2024-03-08T12:50:22;9.40;48.04
70534;SHT31;58088;51.186;17.130;2024-03-08T12:52:50;9.39;48.50
70534;SHT31;58088;51.186;17.130;2024-03-08T12:55:21;9.36;48.75
70534;SHT31;58088;51.186;17.130;2024-03-08T12:57:47;9.42;49.18
70534;SHT31;58088;51.186;17.130;2024-03-08T13:00:14;9.50;48.95
70534;SHT31;58088;51.186;17.130;2024-03-08T13:02:49;9.53;48.65
70534;SHT31;58088;51.186;17.130;2024-03-08T13:05:18;9.51;49.04
70534;SHT31;58088;51.186;17.130;2024-03-08T13:07:45;9.47;48.54
70534;SHT31;58088;51.186;17.130;2024-03-08T13:10:12;9.48;48.48
70534;SHT31;58088;51.186;17.130;2024-03-08T13:12:44;9.51;48.59
70534;SHT31;58088;51.186;17.130;2024-03-08T13:15:10;9.54;48.53
70534;SHT31;58088;51.186;17.130;2024-03-08T13:17:41;9.53;48.61
70534;SHT31;58088;51.186;17.130;2024-03-08T13:20:10;9.53;48.66
70534;SHT31;58088;51.186;17.130;2024-03-08T13:22:42;9.57;48.45
70534;SHT31;58088;51.186;17.130;2024-03-08T13:25:08;9.62;48.61
70534;SHT31;58088;51.186;17.130;2024-03-08T13:27:41;9.61;48.52
70534;SHT31;58088;51.186;17.130;2024-03-08T13:30:09;9.56;48.29
70534;SHT31;58088;51.186;17.130;2024-03-08T13:32:42;9.60;48.62
70534;SHT31;58088;51.186;17.130;2024-03-08T13:35:12;9.62;48.62
70534;SHT31;58088;51.186;17.130;2024-03-08T13:37:41;9.62;48.74
70534;SHT31;58088;51.186;17.130;2024-03-08T13:40:09;9.62;48.79
70534;SHT31;58088;51.186;17.130;2024-03-08T13:42:37;9.60;48.87
70534;SHT31;58088;51.186;17.130;2024-03-08T13:45:05;9.54;48.93
70534;SHT31;58088;51.186;17.130;2024-03-08T13:47:38;9.55;49.14
70534;SHT31;58088;51.186;17.130;2024-03-08T13:50:05;9.56;49.12
70534;SHT31;58088;51.186;17.130;2024-03-08T13:52:39;9.54;49.45
70534;SHT31;58088;51.186;17.130;2024-03-08T13:55:05;9.44;49.53
70534;SHT31;58088;51.186;17.130;2024-03-08T13:57:33;9.41;49.26
70534;SHT31;58088;51.186;17.130;2024-03-08T13:59:59;9.40;49.54
70534;SHT31;58088;51.186;17.130;2024-03-08T14:02:25;9.44;49.99
70534;SHT31;58088;51.186;17.130;2024-03-08T14:04:56;9.45;49.84
70534;SHT31;58088;51.186;17.130;2024-03-08T14:07:27;9.40;49.53
70534;SHT31;58088;51.186;17.130;2024-03-08T14:09:54;9.38;49.58
70534;SHT31;58088;51.186;17.130;2024-03-08T14:12:21;9.34;49.65
70534;SHT31;58088;51.186;17.130;2024-03-08T14:14:47;9.37;50.06
70534;SHT31;58088;51.186;17.130;2024-03-08T14:17:13;9.37;49.54
70534;SHT31;58088;51.186;17.130;2024-03-08T14:19:43;9.36;49.38
70534;SHT31;58088;51.186;17.130;2024-03-08T14:22:10;9.34;49.38
70534;SHT31;58088;51.186;17.130;2024-03-08T14:24:40;9.36;49.67
70534;SHT31;58088;51.186;17.130;2024-03-08T14:27:08;9.38;49.44
70534;SHT31;58088;51.186;17.130;2024-03-08T14:29:35;9.36;49.99
70534;SHT31;58088;51.186;17.130;2024-03-08T14:32:02;9.38;49.98
70534;SHT31;58088;51.186;17.130;2024-03-08T14:34:32;9.39;50.41
70534;SHT31;58088;51.186;17.130;2024-03-08T14:36:59;9.42;50.33
70534;SHT31;58088;51.186;17.130;2024-03-08T14:39:31;9.41;50.02
70534;SHT31;58088;51.186;17.130;2024-03-08T14:41:59;9.41;49.96
70534;SHT31;58088;51.186;17.130;2024-03-08T14:44:25;9.39;49.93
70534;SHT31;58088;51.186;17.130;2024-03-08T14:46:52;9.40;50.21
70534;SHT31;58088;51.186;17.130;2024-03-08T14:49:19;9.43;50.33
70534;SHT31;58088;51.186;17.130;2024-03-08T14:51:46;9.45;49.92
70534;SHT31;58088;51.186;17.130;2024-03-08T14:54:13;9.46;50.00
70534;SHT31;58088;51.186;17.130;2024-03-08T14:56:39;9.44;49.88
70534;SHT31;58088;51.186;17.130;2024-03-08T14:59:08;9.40;50.04
70534;SHT31;58088;51.186;17.130;2024-03-08T15:01:35;9.37;49.80
70534;SHT31;58088;51.186;17.130;2024-03-08T15:04:02;9.35;49.82
70534;SHT31;58088;51.186;17.130;2024-03-08T15:06:34;9.29;49.96
70534;SHT31;58088;51.186;17.130;2024-03-08T15:09:03;9.27;50.14
70534;SHT31;58088;51.186;17.130;2024-03-08T15:11:40;9.29;50.25
70534;SHT31;58088;51.186;17.130;2024-03-08T15:14:08;9.29;49.87
70534;SHT31;58088;51.186;17.130;2024-03-08T15:16:39;9.28;49.93
70534;SHT31;58088;51.186;17.130;2024-03-08T15:19:07;9.27;50.10
70534;SHT31;58088;51.186;17.130;2024-03-08T15:21:33;9.23;50.35
70534;SHT31;58088;51.186;17.130;2024-03-08T15:24:03;9.22;50.18
70534;SHT31;58088;51.186;17.130;2024-03-08T15:26:29;9.22;50.35
70534;SHT31;58088;51.186;17.130;2024-03-08T15:28:57;9.17;50.03
70534;SHT31;58088;51.186;17.130;2024-03-08T15:31:25;9.14;50.29
70534;SHT31;58088;51.186;17.130;2024-03-08T15:33:52;9.12;50.13
70534;SHT31;58088;51.186;17.130;2024-03-08T15:36:26;9.13;50.26
70534;SHT31;58088;51.186;17.130;2024-03-08T15:38:59;9.13;50.31
70534;SHT31;58088;51.186;17.130;2024-03-08T15:41:26;9.11;50.47
70534;SHT31;58088;51.186;17.130;2024-03-08T15:43:53;9.09;50.65
70534;SHT31;58088;51.186;17.130;2024-03-08T15:46:20;9.06;50.68
70534;SHT31;58088;51.186;17.130;2024-03-08T15:48:48;9.04;50.57
70534;SHT31;58088;51.186;17.130;2024-03-08T15:51:15;9.00;50.58
70534;SHT31;58088;51.186;17.130;2024-03-08T15:53:44;8.97;50.77
70534;SHT31;58088;51.186;17.130;2024-03-08T15:56:18;8.94;50.96
70534;SHT31;58088;51.186;17.130;2024-03-08T15:58:49;8.90;51.01
70534;SHT31;58088;51.186;17.130;2024-03-08T16:01:17;8.89;51.05